Time;durP1;ratioP1;P1;durP2;ratioP2;P2;SDS_P1;SDS_P2;PMS_P1;PMS_P2;Temp;Humidity;BMP_temperature;BMP_pressure;BME280_temperature;BME280_humidity;BME280_pressure;Samples;Min_cycle;Max_cycle;Signal;HPM_P1;HPM_P2
2023/02/14 13:00:11;;;;;;;26.00;10.20;;;;;;;8.02;100.00;100586.02;67707;1279;1016431;-61
2023/02/14 13:03:13;;;;;;;24.10;9.00;;;;;;;7.89;100.00;100579.17;67734;1279;1016426;-61
2023/02/14 13:06:16;;;;;;;25.50;9.40;;;;;;;7.98;100.00;100581.59;67709;1279;1016184;-61
2023/02/14 13:09:18;;;;;;;23.10;9.20;;;;;;;8.00;100.00;100584.15;67706;1279;1016424;-61
2023/02/14 13:12:21;;;;;;;25.70;9.80;;;;;;;8.17;100.00;100583.75;67733;1279;1016404;-61
2023/02/14 13:15:26;;;;;;;24.60;9.90;;;;;;;8.23;100.00;100588.67;67675;1279;1016296;-61
2023/02/14 13:18:28;;;;;;;25.90;11.40;;;;;;;8.19;100.00;100586.67;67719;1279;1016430;-60
2023/02/14 13:21:31;;;;;;;27.90;11.40;;;;;;;8.14;100.00;100588.52;67744;1279;1016397;-61
2023/02/14 13:24:33;;;;;;;25.60;10.10;;;;;;;8.14;100.00;100592.01;67802;1279;1016443;-61
2023/02/14 13:27:36;;;;;;;24.60;9.90;;;;;;;8.03;100.00;100593.48;67770;1279;1016949;-61
2023/02/14 13:30:40;;;;;;;28.20;10.30;;;;;;;8.09;100.00;100589.70;67738;1279;1016464;-61
2023/02/14 13:33:42;;;;;;;25.60;10.80;;;;;;;8.02;100.00;100589.16;67719;1279;1016052;-61
2023/02/14 13:36:45;;;;;;;26.30;10.20;;;;;;;7.90;100.00;100588.71;67764;1280;1017053;-61
2023/02/14 13:39:48;;;;;;;26.80;10.10;;;;;;;7.91;100.00;100584.69;67784;1279;1016432;-61
2023/02/14 13:42:50;;;;;;;28.70;10.60;;;;;;;7.88;100.00;100582.30;67790;1279;1016673;-61
2023/02/14 13:45:52;;;;;;;27.40;10.40;;;;;;;7.77;100.00;100589.35;67709;1279;1016164;-61
2023/02/14 13:48:55;;;;;;;29.50;11.30;;;;;;;7.66;100.00;100589.41;67716;1279;1016956;-61
2023/02/14 13:52:00;;;;;;;25.50;10.50;;;;;;;7.57;100.00;100588.36;67730;1279;1016457;-61
2023/02/14 13:55:02;;;;;;;25.10;10.80;;;;;;;7.69;100.00;100593.17;67785;1279;1016689;-61
2023/02/14 13:58:04;;;;;;;27.20;10.50;;;;;;;7.70;100.00;100588.27;67728;1279;1016266;-61
2023/02/14 14:01:07;;;;;;;25.70;11.10;;;;;;;7.69;100.00;100589.85;67719;1279;1016488;-61
2023/02/14 14:04:09;;;;;;;26.80;12.30;;;;;;;7.63;100.00;100588.06;67725;1279;1016147;-60
2023/02/14 14:07:12;;;;;;;31.50;13.20;;;;;;;7.65;100.00;100587.34;67757;1279;1016517;-60
2023/02/14 14:10:14;;;;;;;28.90;13.60;;;;;;;7.54;100.00;100594.52;67781;1279;1016438;-61
2023/02/14 14:13:17;;;;;;;29.60;12.90;;;;;;;7.57;100.00;100588.54;67744;1279;1016410;-61
2023/02/14 14:16:19;;;;;;;27.70;12.00;;;;;;;7.56;100.00;100584.73;67733;1279;1016159;-61
2023/02/14 14:19:21;;;;;;;28.90;12.80;;;;;;;7.48;100.00;100597.60;67720;1279;1016507;-61
2023/02/14 14:22:24;;;;;;;29.30;13.10;;;;;;;7.32;100.00;100598.77;67798;1279;1016275;-61
2023/02/14 14:25:26;;;;;;;29.10;13.70;;;;;;;7.16;100.00;100600.30;67747;1279;1017105;-61
2023/02/14 14:28:29;;;;;;;30.20;12.80;;;;;;;7.10;100.00;100605.97;67785;1279;1016606;-61
2023/02/14 14:31:31;;;;;;;29.70;14.20;;;;;;;7.15;100.00;100598.92;67731;1279;1016655;-61
2023/02/14 14:34:34;;;;;;;29.50;14.40;;;;;;;7.14;100.00;100596.87;67730;1279;1016764;-60
2023/02/14 14:37:36;;;;;;;28.80;12.80;;;;;;;7.07;100.00;100595.94;67777;1279;1016368;-61
2023/02/14 14:40:47;;;;;;;28.80;13.40;;;;;;;6.99;100.00;100608.60;67673;1279;1017018;-61
2023/02/14 14:43:49;;;;;;;29.30;11.80;;;;;;;6.97;100.00;100603.60;65349;1278;5353059;-61
2023/02/14 14:46:52;;;;;;;;;;;;;;;6.87;100.00;100602.20;67760;1279;1018712;-60
2023/02/14 14:49:54;;;;;;;27.50;12.90;;;;;;;6.97;100.00;100605.15;67755;1279;1016777;-61
2023/02/14 14:52:57;;;;;;;24.80;11.20;;;;;;;7.04;100.00;100600.69;67792;1279;1019626;-61
2023/02/14 14:55:59;;;;;;;29.10;12.50;;;;;;;7.07;100.00;100602.73;67713;1279;1016408;-61
2023/02/14 14:59:02;;;;;;;28.20;12.40;;;;;;;7.15;100.00;100605.54;67740;1279;1015819;-61
2023/02/14 15:02:04;;;;;;;28.60;13.50;;;;;;;7.20;100.00;100608.04;67777;1279;1016397;-61
2023/02/14 15:05:06;;;;;;;31.90;14.20;;;;;;;7.11;100.00;100603.17;67761;1279;1016153;-61
2023/02/14 15:08:09;;;;;;;28.50;13.90;;;;;;;7.02;100.00;100602.81;67779;1279;1016317;-61
2023/02/14 15:11:11;;;;;;;32.70;14.90;;;;;;;6.89;100.00;100601.14;67737;1279;1016492;-61
2023/02/14 15:14:14;;;;;;;33.30;14.70;;;;;;;6.89;100.00;100599.75;67712;1257;1015916;-61
2023/02/14 15:17:16;;;;;;;30.50;13.50;;;;;;;6.83;100.00;100605.41;67776;1279;1017064;-61
2023/02/14 15:20:19;;;;;;;29.60;15.10;;;;;;;6.71;100.00;100596.55;67808;1279;1016331;-61
2023/02/14 15:23:21;;;;;;;33.10;14.80;;;;;;;6.67;100.00;100595.77;67822;1279;1018024;-61
2023/02/14 15:26:24;;;;;;;32.60;14.70;;;;;;;6.60;100.00;100601.63;67759;1279;1016462;-61
2023/02/14 15:29:26;;;;;;;30.90;14.70;;;;;;;6.57;100.00;100604.61;67776;1279;1016411;-61
2023/02/14 15:32:29;;;;;;;32.00;14.50;;;;;;;6.56;100.00;100607.41;67784;1279;1016547;-61
2023/02/14 15:35:31;;;;;;;30.10;13.90;;;;;;;6.51;100.00;100604.38;67790;1279;1016385;-61
2023/02/14 15:38:34;;;;;;;32.30;15.90;;;;;;;6.50;100.00;100611.50;67727;1279;1016341;-61
2023/02/14 15:41:37;;;;;;;;;;;;;;;6.42;100.00;100612.14;67746;1279;1016154;-61
2023/02/14 15:44:39;;;;;;;30.90;14.30;;;;;;;6.39;100.00;100614.45;67754;1279;1016467;-61
2023/02/14 15:47:41;;;;;;;30.10;13.60;;;;;;;6.47;100.00;100613.27;67754;1279;1016447;-61
2023/02/14 15:50:44;;;;;;;31.40;14.20;;;;;;;6.59;100.00;100614.49;67751;1279;1016272;-61
2023/02/14 15:53:47;;;;;;;30.60;14.90;;;;;;;6.67;100.00;100614.02;67776;1279;1016042;-61
2023/02/14 15:56:49;;;;;;;29.50;14.50;;;;;;;6.62;100.00;100613.92;67792;1279;1019535;-61
2023/02/14 15:59:52;;;;;;;35.70;15.90;;;;;;;6.46;100.00;100616.79;67786;1279;1016289;-61
2023/02/14 16:02:55;;;;;;;29.80;14.40;;;;;;;6.45;100.00;100612.63;67745;1279;1016974;-61
2023/02/14 16:05:58;;;;;;;30.90;14.90;;;;;;;6.43;100.00;100617.87;67786;1279;1016901;-61
2023/02/14 16:09:01;;;;;;;30.70;14.20;;;;;;;6.46;100.00;100615.73;67763;1279;1016409;-61
2023/02/14 16:12:04;;;;;;;30.20;14.90;;;;;;;6.40;100.00;100624.69;67757;1279;1016929;-61
2023/02/14 16:15:06;;;;;;;29.20;13.90;;;;;;;6.34;100.00;100626.70;67794;1279;1016096;-61
2023/02/14 16:18:08;;;;;;;33.00;16.00;;;;;;;6.34;100.00;100625.84;67735;1279;1016410;-61
2023/02/14 16:21:11;;;;;;;30.80;15.70;;;;;;;6.46;100.00;100631.38;67718;1279;1016351;-61
2023/02/14 16:24:13;;;;;;;31.60;15.90;;;;;;;6.52;100.00;100632.67;67741;1279;1016108;-61
2023/02/14 16:27:16;;;;;;;33.30;15.70;;;;;;;6.54;100.00;100631.60;67770;1279;1017968;-61
2023/02/14 16:30:18;;;;;;;33.80;15.30;;;;;;;6.41;100.00;100637.89;67736;1279;1016246;-61
2023/02/14 16:33:20;;;;;;;31.30;14.80;;;;;;;6.41;100.00;100638.92;67719;1279;1015878;-61
2023/02/14 16:36:23;;;;;;;35.00;16.20;;;;;;;6.51;100.00;100638.27;67698;1279;1016384;-61
2023/02/14 16:39:27;;;;;;;32.20;16.70;;;;;;;6.54;100.00;100638.38;67813;1279;1017002;-61
2023/02/14 16:42:31;;;;;;;32.40;15.70;;;;;;;6.45;100.00;100636.97;67753;1279;1016273;-61
2023/02/14 16:45:34;;;;;;;31.70;15.00;;;;;;;6.46;100.00;100638.84;67776;1279;1016809;-61
2023/02/14 16:48:36;;;;;;;31.60;16.40;;;;;;;6.41;100.00;100640.65;67775;1279;1016440;-61
2023/02/14 16:51:48;;;;;;;;;;;;;;;;;;;;;
2023/02/14 16:54:51;;;;;;;33.80;17.30;;;;;;;6.52;100.00;100652.32;67750;1279;1016133;-61
2023/02/14 16:57:53;;;;;;;38.70;18.30;;;;;;;6.43;100.00;100660.27;67769;1279;1016244;-61
2023/02/14 17:00:56;;;;;;;34.60;17.40;;;;;;;6.35;100.00;100658.14;67784;1279;1016239;-61
2023/02/14 17:04:00;;;;;;;34.80;17.70;;;;;;;6.37;100.00;100655.84;67725;1279;1018480;-61
2023/02/14 17:07:04;;;;;;;35.40;17.40;;;;;;;6.33;100.00;100655.53;67770;1279;1016448;-61
2023/02/14 17:10:07;;;;;;;35.70;17.70;;;;;;;6.24;100.00;100659.31;67727;1279;1016248;-61
2023/02/14 17:13:10;;;;;;;33.70;17.90;;;;;;;6.17;100.00;100660.27;67739;1279;1017250;-61
2023/02/14 17:16:14;;;;;;;;;;;;;;;6.22;100.00;100657.95;67813;1279;1016446;-61
2023/02/14 17:19:16;;;;;;;33.80;17.20;;;;;;;6.22;100.00;100660.73;67793;1279;1016521;-61
2023/02/14 17:22:19;;;;;;;32.80;17.10;;;;;;;6.28;100.00;100666.73;67727;1279;1016859;-61
2023/02/14 17:25:21;;;;;;;35.30;18.00;;;;;;;6.34;100.00;100664.57;67732;1279;1016106;-60
2023/02/14 17:28:25;;;;;;;34.00;18.00;;;;;;;6.32;100.00;100667.90;67709;1279;1016425;-61
2023/02/14 17:31:28;;;;;;;37.20;18.80;;;;;;;6.30;100.00;100663.07;67706;1279;1016446;-61
2023/02/14 17:34:30;;;;;;;33.10;16.20;;;;;;;6.33;100.00;100664.23;67753;1279;1016329;-61
2023/02/14 17:37:33;;;;;;;33.60;17.00;;;;;;;6.37;100.00;100664.19;67774;1280;1016409;-61
2023/02/14 17:40:35;;;;;;;31.00;15.60;;;;;;;6.53;100.00;100658.38;67746;1280;1018840;-61
2023/02/14 17:43:38;;;;;;;33.40;14.80;;;;;;;6.56;100.00;100659.39;67723;1279;1016380;-61
2023/02/14 17:46:40;;;;;;;31.90;15.30;;;;;;;6.58;100.00;100659.88;67768;1279;1017305;-61
2023/02/14 17:49:42;;;;;;;32.50;15.60;;;;;;;6.72;100.00;100658.61;67718;1279;1016516;-61
2023/02/14 17:52:45;;;;;;;31.20;15.10;;;;;;;6.72;100.00;100659.14;67747;1279;1016384;-60
2023/02/14 17:55:48;;;;;;;32.90;15.00;;;;;;;6.73;100.00;100657.05;67714;1280;1016307;-61
2023/02/14 17:58:50;;;;;;;33.30;15.00;;;;;;;6.85;100.00;100659.11;67778;1279;1016291;-61
2023/02/14 18:01:52;;;;;;;33.10;15.70;;;;;;;7.04;100.00;100660.89;67760;1279;1016186;-61
2023/02/14 18:04:56;;;;;;;30.40;15.20;;;;;;;6.94;100.00;100662.77;67752;1279;1016618;-61
2023/02/14 18:07:59;;;;;;;30.50;14.60;;;;;;;6.89;100.00;100663.39;67733;1279;1016051;-60
2023/02/14 18:11:01;;;;;;;30.50;15.20;;;;;;;6.83;100.00;100665.05;67707;1279;1016884;-61
2023/02/14 18:14:04;;;;;;;33.40;15.00;;;;;;;6.78;100.00;100660.78;67768;1279;1016230;-61
2023/02/14 18:17:06;;;;;;;30.10;14.70;;;;;;;6.77;100.00;100661.50;67760;1279;1016507;-61
2023/02/14 18:20:09;;;;;;;30.20;14.10;;;;;;;6.75;100.00;100661.00;67772;1279;1016389;-60
2023/02/14 18:23:11;;;;;;;33.40;14.00;;;;;;;6.70;100.00;100661.27;67757;1279;1016500;-61
2023/02/14 18:26:14;;;;;;;33.50;16.10;;;;;;;6.62;100.00;100659.82;67705;1279;1015861;-61
2023/02/14 18:29:16;;;;;;;34.20;17.90;;;;;;;6.70;100.00;100658.64;67756;1279;1016396;-61
2023/02/14 18:32:18;;;;;;;33.10;16.00;;;;;;;6.65;100.00;100656.48;67798;1279;1016231;-61
2023/02/14 18:35:21;;;;;;;35.00;18.30;;;;;;;6.53;100.00;100658.03;67780;1279;1019240;-61
2023/02/14 18:38:23;;;;;;;34.30;18.20;;;;;;;6.43;100.00;100663.41;67721;1279;1016465;-61
2023/02/14 18:41:26;;;;;;;37.30;19.20;;;;;;;6.42;100.00;100663.06;67721;1279;1016316;-61
2023/02/14 18:44:28;;;;;;;35.70;19.10;;;;;;;6.44;100.00;100660.42;67731;1279;1016479;-61
2023/02/14 18:47:31;;;;;;;37.90;19.90;;;;;;;6.45;100.00;100657.80;67739;1279;1018822;-61
2023/02/14 18:50:33;;;;;;;33.60;17.80;;;;;;;6.39;100.00;100661.55;67784;1279;1016103;-61
2023/02/14 18:53:36;;;;;;;36.50;18.00;;;;;;;6.40;100.00;100658.40;67741;1279;1016434;-61
2023/02/14 18:56:38;;;;;;;37.80;18.90;;;;;;;6.37;100.00;100657.58;67735;1279;1017379;-61
2023/02/14 18:59:41;;;;;;;33.30;17.10;;;;;;;6.36;100.00;100653.25;67777;1279;1016422;-61
2023/02/14 19:02:44;;;;;;;32.80;16.10;;;;;;;6.33;100.00;100653.48;67709;1279;1016162;-61
2023/02/14 19:05:47;;;;;;;32.00;15.90;;;;;;;6.38;100.00;100648.52;67712;1279;1016297;-61
2023/02/14 19:08:50;;;;;;;33.60;16.00;;;;;;;6.37;100.00;100647.33;67733;1279;1016469;-60
2023/02/14 19:11:52;;;;;;;34.50;17.30;;;;;;;6.39;100.00;100642.42;67706;1279;1016040;-60
2023/02/14 19:14:55;;;;;;;39.40;19.50;;;;;;;6.44;100.00;100645.67;67728;1279;1016405;-61
2023/02/14 19:17:58;;;;;;;37.70;18.60;;;;;;;6.43;100.00;100640.80;67726;1279;1016450;-61
2023/02/14 19:21:00;;;;;;;35.80;19.70;;;;;;;6.45;100.00;100640.44;67717;1279;1016249;-61
2023/02/14 19:24:05;;;;;;;36.50;19.10;;;;;;;6.36;100.00;100641.08;67715;1279;1016417;-61
2023/02/14 19:27:08;;;;;;;36.10;18.70;;;;;;;6.35;100.00;100639.89;67809;1279;1016454;-60
2023/02/14 19:30:10;;;;;;;36.50;18.10;;;;;;;6.31;100.00;100639.42;67743;1279;1016263;-61
2023/02/14 19:33:13;;;;;;;36.00;18.50;;;;;;;6.31;100.00;100642.02;67685;1279;1016927;-61
2023/02/14 19:36:15;;;;;;;32.90;17.30;;;;;;;6.34;100.00;100643.02;67724;1279;1016382;-61
2023/02/14 19:39:18;;;;;;;32.90;15.60;;;;;;;6.30;100.00;100643.79;67767;1279;1016453;-61
2023/02/14 19:42:20;;;;;;;31.30;15.30;;;;;;;6.29;100.00;100645.36;67710;1279;1016416;-61
2023/02/14 19:45:23;;;;;;;36.60;17.80;;;;;;;6.32;100.00;100649.65;67736;1279;1017603;-61
2023/02/14 19:48:25;;;;;;;38.50;17.50;;;;;;;6.32;100.00;100649.84;67791;1279;1015942;-61
2023/02/14 19:51:28;;;;;;;36.50;17.80;;;;;;;6.24;100.00;100648.21;67793;1279;1016716;-61
2023/02/14 19:54:30;;;;;;;34.50;17.20;;;;;;;6.21;100.00;100649.12;67789;1279;1016679;-61
2023/02/14 19:57:33;;;;;;;35.60;18.40;;;;;;;6.28;100.00;100646.23;67738;1279;1016472;-61
2023/02/14 20:00:36;;;;;;;34.80;18.30;;;;;;;6.40;100.00;100646.41;67716;1279;1016827;-61
2023/02/14 20:03:39;;;;;;;35.30;18.40;;;;;;;6.32;100.00;100652.61;67719;1279;1019153;-61
2023/02/14 20:06:41;;;;;;;32.20;17.00;;;;;;;6.46;100.00;100649.29;67738;1279;1016478;-61
2023/02/14 20:09:44;;;;;;;31.80;16.40;;;;;;;6.48;100.00;100646.12;67775;1279;1016515;-61
2023/02/14 20:12:46;;;;;;;35.60;16.30;;;;;;;6.48;100.00;100644.21;67788;1279;1016438;-61
2023/02/14 20:15:49;;;;;;;32.20;16.00;;;;;;;6.60;100.00;100641.42;67773;1279;1016095;-61
2023/02/14 20:18:52;;;;;;;33.40;15.60;;;;;;;6.60;100.00;100643.34;67792;1279;1016468;-61
2023/02/14 20:21:54;;;;;;;32.80;15.30;;;;;;;6.61;100.00;100640.19;67783;1279;1015998;-61
2023/02/14 20:24:57;;;;;;;;;;;;;;;6.51;100.00;100639.82;67724;1279;1016564;-61
2023/02/14 20:28:00;;;;;;;36.80;15.90;;;;;;;6.44;100.00;100644.10;67815;1279;1016749;-61
2023/02/14 20:31:02;;;;;;;33.00;15.70;;;;;;;6.49;100.00;100645.23;67776;1279;1016249;-60
2023/02/14 20:34:05;;;;;;;32.60;16.00;;;;;;;6.52;100.00;100641.72;67785;1279;1018565;-61
2023/02/14 20:37:09;;;;;;;30.70;15.60;;;;;;;6.57;100.00;100640.25;67812;1279;1016416;-60
2023/02/14 20:40:12;;;;;;;35.50;16.50;;;;;;;6.48;100.00;100639.52;67734;1279;1016251;-62
2023/02/14 20:43:15;;;;;;;31.50;16.10;;;;;;;6.46;100.00;100635.73;67799;1279;1019005;-61
2023/02/14 20:46:17;;;;;;;34.70;16.30;;;;;;;6.39;100.00;100640.70;67779;1256;1016429;-61
2023/02/14 20:49:19;;;;;;;33.50;15.40;;;;;;;6.44;100.00;100639.58;67731;1279;1016467;-61
2023/02/14 20:52:22;;;;;;;32.20;15.80;;;;;;;6.52;100.00;100641.55;67774;1279;1016530;-61
2023/02/14 20:55:25;;;;;;;32.70;15.20;;;;;;;6.59;100.00;100642.30;67770;1279;1016261;-61
2023/02/14 20:58:28;;;;;;;34.90;14.80;;;;;;;6.61;100.00;100640.71;67762;1279;1016381;-61
2023/02/14 21:01:31;;;;;;;;;;;;;;;6.63;100.00;100639.98;67791;1279;1016368;-61
2023/02/14 21:04:34;;;;;;;30.90;16.10;;;;;;;6.58;100.00;100640.75;67738;1279;1016347;-61
2023/02/14 21:07:36;;;;;;;32.90;15.60;;;;;;;6.49;100.00;100640.88;67758;1279;1016139;-61
2023/02/14 21:10:38;;;;;;;35.00;16.70;;;;;;;6.49;100.00;100640.02;67794;1279;1016438;-61
2023/02/14 21:13:41;;;;;;;31.60;15.90;;;;;;;6.46;100.00;100639.55;67747;1279;1016278;-61
2023/02/14 21:16:45;;;;;;;31.70;16.00;;;;;;;6.42;100.00;100639.25;67737;1279;1015793;-61
2023/02/14 21:19:47;;;;;;;33.30;16.70;;;;;;;6.47;100.00;100641.09;67749;1279;1016397;-61
2023/02/14 21:22:50;;;;;;;41.10;18.20;;;;;;;6.53;100.00;100642.41;67745;1279;1016157;-61
2023/02/14 21:25:53;;;;;;;34.70;18.10;;;;;;;6.56;100.00;100636.08;67696;1279;1015934;-61
2023/02/14 21:28:55;;;;;;;33.50;17.50;;;;;;;6.45;100.00;100634.87;67729;1279;1015978;-61
2023/02/14 21:31:58;;;;;;;41.20;19.20;;;;;;;6.45;100.00;100629.84;67743;1279;1016467;-61
2023/02/14 21:35:01;;;;;;;36.30;19.40;;;;;;;6.43;100.00;100632.98;67781;1279;1016449;-61
2023/02/14 21:38:03;;;;;;;38.70;20.20;;;;;;;6.43;100.00;100629.68;67745;1279;1016475;-61
2023/02/14 21:41:06;;;;;;;38.20;19.60;;;;;;;6.42;100.00;100630.21;67724;1279;1016293;-61
2023/02/14 21:44:09;;;;;;;34.90;17.50;;;;;;;6.41;100.00;100631.45;67769;1279;1018128;-60
2023/02/14 21:47:11;;;;;;;41.30;21.20;;;;;;;6.35;100.00;100632.41;67728;1279;1016741;-61
2023/02/14 21:50:32;;;;;;;38.20;20.50;;;;;;;6.42;100.00;100635.61;67705;1279;1016126;-61
2023/02/14 21:53:34;;;;;;;32.70;17.10;;;;;;;6.55;100.00;100637.14;67797;1279;1016413;-61
2023/02/14 21:56:37;;;;;;;37.90;18.00;;;;;;;6.54;100.00;100632.83;67765;1279;1016124;-61
2023/02/14 21:59:40;;;;;;;32.80;17.60;;;;;;;6.46;100.00;100634.34;67734;1279;1016447;-61
2023/02/14 22:02:43;;;;;;;;;;;;;;;6.48;100.00;100628.57;67765;1279;1016406;-61
2023/02/14 22:05:45;;;;;;;35.30;16.80;;;;;;;6.45;100.00;100629.31;67748;1279;1016391;-61
2023/02/14 22:08:47;;;;;;;39.60;20.90;;;;;;;6.38;100.00;100630.80;67738;1279;1016479;-61
2023/02/14 22:11:50;;;;;;;43.10;21.90;;;;;;;6.34;100.00;100636.58;67737;1279;1016555;-61
2023/02/14 22:14:52;;;;;;;38.80;21.10;;;;;;;6.38;100.00;100635.67;67756;1279;1016629;-61
2023/02/14 22:17:55;;;;;;;38.10;19.80;;;;;;;6.54;100.00;100632.48;67748;1279;1016807;-61
2023/02/14 22:20:57;;;;;;;35.60;18.70;;;;;;;6.57;100.00;100627.03;67774;1279;1016494;-61
2023/02/14 22:23:59;;;;;;;36.80;17.30;;;;;;;6.58;100.00;100622.50;67750;1279;1016927;-61
2023/02/14 22:27:02;;;;;;;34.90;17.80;;;;;;;6.73;100.00;100620.70;67749;1279;1016441;-62
2023/02/14 22:30:05;;;;;;;35.80;18.30;;;;;;;6.89;100.00;100619.39;67735;1279;1016414;-61
2023/02/14 22:33:07;;;;;;;34.90;18.00;;;;;;;6.90;100.00;100618.16;67775;1279;1016434;-61
2023/02/14 22:36:09;;;;;;;35.40;18.90;;;;;;;6.88;100.00;100619.74;67766;1279;1016354;-61
2023/02/14 22:39:12;;;;;;;36.70;18.40;;;;;;;6.94;100.00;100619.13;67739;1279;1016403;-62
2023/02/14 22:42:15;;;;;;;34.90;17.80;;;;;;;7.00;100.00;100617.30;67709;1279;1016381;-62
2023/02/14 22:45:17;;;;;;;35.20;19.00;;;;;;;7.06;100.00;100619.27;67761;1279;1017714;-61
2023/02/14 22:48:20;;;;;;;34.70;17.80;;;;;;;7.09;100.00;100624.60;67769;1279;1016457;-61
2023/02/14 22:51:23;;;;;;;33.30;17.60;;;;;;;7.03;100.00;100626.45;67748;1279;1016133;-62
2023/02/14 22:54:26;;;;;;;34.30;18.40;;;;;;;6.96;100.00;100623.61;67785;1279;1016442;-60
2023/02/14 22:57:28;;;;;;;36.40;19.00;;;;;;;6.89;100.00;100620.43;67765;1279;1019003;-61
2023/02/14 23:00:31;;;;;;;38.40;19.80;;;;;;;6.85;100.00;100618.23;67729;1279;1016707;-61
2023/02/14 23:03:34;;;;;;;34.30;18.00;;;;;;;6.80;100.00;100617.98;67727;1279;1016187;-61
2023/02/14 23:06:36;;;;;;;40.30;20.10;;;;;;;6.84;100.00;100617.22;67792;1279;1016544;-62
2023/02/14 23:09:38;;;;;;;36.30;19.50;;;;;;;6.81;100.00;100613.27;67783;1279;1016511;-61
2023/02/14 23:22:41;;;;;;;39.50;21.20;;;;;;;6.75;100.00;100605.02;67716;1279;1016542;-61
2023/02/14 23:25:44;;;;;;;36.60;19.70;;;;;;;6.79;100.00;100605.83;67755;1279;1016330;-61
2023/02/14 23:28:46;;;;;;;38.90;19.90;;;;;;;6.91;100.00;100599.35;67787;1279;1016517;-62
2023/02/14 23:31:48;;;;;;;35.70;18.80;;;;;;;7.05;100.00;100600.48;67720;1279;1016097;-61
2023/02/14 23:34:51;;;;;;;36.90;19.70;;;;;;;7.15;100.00;100598.76;67687;1279;1017884;-60
2023/02/14 23:37:54;;;;;;;37.00;19.60;;;;;;;7.17;100.00;100600.63;67766;1279;1016534;-61
2023/02/14 23:44:16;;;;;;;40.70;22.00;;;;;;;6.99;100.00;100594.88;67802;1279;1016313;-61
2023/02/14 23:47:18;;;;;;;37.00;20.20;;;;;;;7.11;100.00;100591.52;67748;1279;1016486;-62
2023/02/14 23:50:21;;;;;;;36.50;20.40;;;;;;;7.16;100.00;100588.64;67730;1279;1016192;-61
2023/02/14 23:53:23;;;;;;;37.80;19.10;;;;;;;7.05;100.00;100586.58;67727;1279;1016512;-61
2023/02/14 23:56:26;;;;;;;35.80;19.30;;;;;;;6.90;100.00;100587.55;67780;1279;1016473;-61
2023/02/14 23:59:28;;;;;;;34.80;19.60;;;;;;;6.89;100.00;100586.33;67750;1279;1016372;-61
